• Join FlightAware (Why Join?)
  • Login
  • US Flag 
04:25AM EDT


 

Airport Tracker/Info


-or-


 

Live Flight TrackerFlight Track Log ✈ AWE1454 ✈ 23-Apr-2013 ✈ KATL - KPHL

Flight Track Log - Related Links

Times and Time Zones

All times are in EDT time to prevent confusion due to time zone crossing. See the AWE1454 flight status page for this flight to view local times or setup timezone preferences in your user account.

Time Position Orientation Groundspeed Altitude Reporting Facility
EDT Latitude Longitude Course Direction KTS MPH feet Rate Location/Type
01:00PM 33.6333 -84.4000 48° Northeast 158 182 2,000  Level Atlanta TRACON
01:02PM 33.8418 -84.1622 73° East  Level Estimated
01:02PM 33.6333 -84.2667 90° East 270 311 5,700  Level Atlanta TRACON
01:03PM 33.9100 -84.0734 54° Northeast  Level Estimated
01:03PM 33.6333 -84.1667 90° East 287 330 8,800  Level Atlanta TRACON
01:04PM 33.8923 -83.9542 100° East  Level FlightAware Approximate
01:04PM 33.6772 -84.0414 67° East 294 338 11,600  Level Atlanta Center
01:05PM 33.9610 -83.8659 48° Northeast  Level Estimated
01:05PM 33.7461 -83.9539 47° Northeast 345 397 14,200  Level Atlanta Center
01:06PM 33.8169 -83.8664 46° Northeast 358 412 16,800 2,040 Climbing Atlanta Center
01:07PM 33.8878 -83.7711 48° Northeast 375 432 18,300 1,740 Climbing Atlanta Center
01:08PM 33.9606 -83.6681 50° Northeast 391 450 20,300 2,040 Climbing Atlanta Center
01:09PM 34.0292 -83.5600 53° Northeast 404 465 22,400 1,800 Climbing Atlanta Center
01:10PM 34.0997 -83.4467 53° Northeast 420 483 23,900 1,560 Climbing Atlanta Center
01:11PM 34.1783 -83.3206 53° Northeast 420 483 25,600 1,500 Climbing Atlanta Center
01:12PM 34.2547 -83.1994 53° Northeast 427 491 26,900 1,260 Climbing Atlanta Center
01:13PM 34.3289 -83.0778 54° Northeast 439 505 28,200 1,560 Climbing Atlanta Center
01:14PM 34.4053 -82.9561 53° Northeast 447 514 30,100 1,620 Climbing Atlanta Center
01:15PM 34.4814 -82.8392 52° Northeast 447 514 31,500 1,200 Climbing Atlanta Center
01:16PM 34.5531 -82.7172 54° Northeast 436 502 32,500 1,200 Climbing Atlanta Center
01:17PM 34.6269 -82.5975 53° Northeast 441 507 34,000 1,260 Climbing Atlanta Center
01:18PM 34.6903 -82.4953 53° Northeast 435 501 35,100 900 Climbing Atlanta Center
01:19PM 34.7617 -82.3750 54° Northeast 435 501 35,800 780 Climbing Atlanta Center
01:20PM 34.8289 -82.2522 56° Northeast 441 507 36,700 600 Climbing Atlanta Center
01:21PM 34.8853 -82.1194 63° Northeast 441 507 37,000 120 Climbing Atlanta Center
01:22PM 34.9458 -81.9836 61° Northeast 448 516 37,000  Level Atlanta Center
01:23PM 35.0081 -81.8428 62° Northeast 453 521 37,000  Level Atlanta Center
01:24PM 35.0808 -81.7139 55° Northeast 464 534 37,000  Level Atlanta Center
01:25PM 35.1533 -81.5822 56° Northeast 464 534 37,000  Level Atlanta Center
01:26PM 35.2239 -81.4583 55° Northeast 455 524 37,000  Level Atlanta Center
01:27PM 35.2939 -81.3289 56° Northeast 455 524 37,000  Level Atlanta Center
01:28PM 35.3664 -81.2017 55° Northeast 455 524 37,000  Level Atlanta Center
01:29PM 35.4364 -81.0769 55° Northeast 450 518 37,000  Level Atlanta Center
01:30PM 35.5061 -80.9492 56° Northeast 450 518 37,000  Level Atlanta Center
01:31PM 35.5761 -80.8267 55° Northeast 450 518 37,000  Level Atlanta Center
01:32PM 35.6458 -80.7039 55° Northeast 450 518 37,000  Level Atlanta Center
01:35PM 35.8222 -80.3825 56° Northeast 439 505 37,000  Level Washington Center
01:36PM 35.8939 -80.2561 55° Northeast 439 505 37,000  Level Washington Center
01:37PM 35.9594 -80.1289 57° Northeast 439 505 37,000  Level Washington Center
01:38PM 36.0239 -80.0222 53° Northeast 434 499 37,000  Level Washington Center
01:39PM 36.0953 -79.8950 55° Northeast 440 506 37,000  Level Washington Center
01:40PM 36.1714 -79.7553 56° Northeast 435 501 37,000  Level Washington Center
01:41PM 36.2336 -79.6400 56° Northeast 442 509 37,000  Level Washington Center
01:42PM 36.3089 -79.5100 54° Northeast 430 495 37,000  Level Washington Center
01:43PM 36.3708 -79.4047 54° Northeast 425 489 37,000  Level Washington Center
01:44PM 36.4394 -79.2789 56° Northeast 425 489 37,000  Level Washington Center
01:45PM 36.5122 -79.1481 55° Northeast 425 489 37,000  Level Washington Center
01:46PM 36.5803 -79.0347 53° Northeast 419 482 37,000  Level Washington Center
01:47PM 36.6483 -78.9108 56° Northeast 419 482 37,000  Level Washington Center
01:48PM 36.7103 -78.7864 58° Northeast 419 482 37,000  Level Washington Center
01:49PM 36.7714 -78.6775 55° Northeast 419 482 37,000 -240 Level Washington Center
01:50PM 36.8369 -78.5581 56° Northeast 419 482 36,600 -720 Descending Washington Center
01:51PM 36.8983 -78.4464 55° Northeast 405 466 35,600 -1,080 Descending Washington Center
01:52PM 36.9700 -78.3136 56° Northeast 410 472 34,500 -1,080 Descending Washington Center
01:53PM 37.0392 -78.2069 51° Northeast 410 472 33,500 -1,200 Descending Washington Center
01:54PM 37.1178 -78.1469 31° Northeast 371 427 32,200 -1,380 Descending Washington Center
01:55PM 37.2067 -78.0794 31° Northeast 366 421 30,800 -1,440 Descending Washington Center
01:56PM 37.2958 -78.0094 32° Northeast 366 421 29,400 -900 Descending Washington Center
01:57PM 37.3806 -77.9414 33° Northeast 371 427 29,000 -240 Descending Washington Center
01:58PM 37.4653 -77.8761 31° Northeast 365 420 29,000  Level Washington Center
01:59PM 37.5500 -77.8078 33° Northeast 365 420 29,000  Level Washington Center
02:00PM 37.6328 -77.7317 36° Northeast 365 420 29,000  Level Washington Center
02:01PM 37.7175 -77.6553 35° Northeast 365 420 29,000  Level Washington Center
02:02PM 37.8044 -77.5789 35° Northeast 365 420 29,000  Level Washington Center
02:03PM 37.8911 -77.4994 36° Northeast 370 426 29,000  Level Washington Center
02:04PM 37.9781 -77.4147 38° Northeast 375 432 29,000  Level Washington Center
02:05PM 38.0644 -77.3431 33° Northeast 380 437 29,000  Level Washington Center
02:06PM 38.1639 -77.2503 36° Northeast 388 447 29,000  Level Washington Center
02:07PM 38.2442 -77.1753 36° Northeast 393 452 29,000 -240 Level Washington Center
02:08PM 38.3411 -77.0847 36° Northeast 393 452 28,600 -900 Descending Washington Center
02:09PM 38.4297 -77.0044 35° Northeast 393 452 27,300 -1,320 Descending Washington Center
02:10PM 38.5161 -76.9236 36° Northeast 387 445 26,000 -1,320 Descending Washington Center
02:11PM 38.5983 -76.8428 38° Northeast 387 445 24,700 -1,020 Descending Washington Center
02:12PM 38.6806 -76.7644 37° Northeast 376 433 24,000 -900 Descending Washington Center
02:13PM 38.7253 -76.6428 65° Northeast 370 426 22,900 -1,440 Descending Washington Center
02:14PM 38.7514 -76.5128 76° East 360 414 21,200 -1,740 Descending Washington Center
02:15PM 38.7772 -76.3853 75° East 365 420 19,500 -1,680 Descending Washington Center
02:16PM 38.8031 -76.2603 75° East 365 420 17,900 -1,500 Descending Washington Center
02:17PM 38.8308 -76.1486 72° East 355 409 16,500 -1,500 Descending Washington Center
02:18PM 38.8519 -76.0289 77° East 355 409 15,000 -780 Descending Washington Center
02:19PM 38.8775 -75.9142 74° East 348 400 15,000 -180 Level Washington Center
02:20PM 38.9194 -75.8103 63° Northeast 337 388 14,700 -660 Descending Washington Center
02:21PM 38.9925 -75.7411 36° Northeast 310 357 13,700 -1,020 Descending Washington Center
02:22PM 39.0675 -75.6797 32° Northeast 310 357 12,700 -1,020 Descending Washington Center
02:23PM 39.1267 -75.6706 North 307 353 12,000 -720 Descending FAA TRACON SMA TRACON (SMA)
02:23PM 39.1589 -75.6667 North 305 351 12,000 -180 Level FAA TRACON SMA TRACON (SMA)
02:23PM 39.1864 -75.6639 North 306 352 11,900 -1,200 Descending FAA TRACON SMA TRACON (SMA)
02:24PM 39.2114 -75.6611 North 305 351 11,200 -1,980 Descending FAA TRACON SMA TRACON (SMA)
02:24PM 39.2444 -75.6581 North 306 352 10,600 -1,680 Descending FAA TRACON SMA TRACON (SMA)
02:24PM 39.2689 -75.6672 344° North 302 348 10,100 -900 Descending FAA TRACON SMA TRACON (SMA)
02:25PM 39.2925 -75.6858 329° Northwest 272 313 10,000 -180 Descending FAA TRACON SMA TRACON (SMA)
02:25PM 39.3144 -75.7019 330° Northwest 269 310 10,000  Level FAA TRACON SMA TRACON (SMA)
02:25PM 39.3361 -75.7186 329° Northwest 279 321 10,000 -300 Level FAA TRACON SMA TRACON (SMA)
02:26PM 39.3567 -75.7344 329° Northwest 278 320 9,800 -1,200 Descending FAA TRACON SMA TRACON (SMA)
02:26PM 39.3822 -75.7539 330° Northwest 277 319 9,200 -1,380 Descending FAA TRACON SMA TRACON (SMA)
02:26PM 39.4022 -75.7703 328° Northwest 278 320 8,900 -1,380 Descending FAA TRACON SMA TRACON (SMA)
02:27PM 39.4247 -75.7872 330° Northwest 276 318 8,300 -1,080 Descending FAA TRACON SMA TRACON (SMA)
02:27PM 39.4475 -75.8039 331° Northwest 271 312 8,200 -300 Descending FAA TRACON SMA TRACON (SMA)
02:27PM 39.4681 -75.8075 352° North 241 277 8,100 -300 Descending FAA TRACON SMA TRACON (SMA)
02:28PM 39.4867 -75.7903 36° Northeast 237 273 8,000 -180 Descending FAA TRACON SMA TRACON (SMA)
02:28PM 39.4892 -75.7628 83° East 236 272 8,000  Level FAA TRACON SMA TRACON (SMA)
02:28PM 39.4789 -75.7403 121° Southeast 235 270 8,000  Level FAA TRACON SMA TRACON (SMA)
02:29PM 39.4633 -75.7178 132° Southeast 237 273 8,000  Level FAA TRACON SMA TRACON (SMA)
02:29PM 39.4503 -75.6942 126° Southeast 240 276 8,000  Level FAA TRACON SMA TRACON (SMA)
02:29PM 39.4375 -75.6733 128° Southeast 239 275 8,000  Level FAA TRACON SMA TRACON (SMA)
02:30PM 39.4247 -75.6528 129° Southeast 239 275 8,000  Level FAA TRACON SMA TRACON (SMA)
02:30PM 39.3997 -75.6031 123° Southeast 241 277 8,000 -300 Level FAA TRACON SMA TRACON (SMA)
02:31PM 39.4017 -75.5769 84° East 229 264 7,700 -960 Descending FAA TRACON SMA TRACON (SMA)
02:31PM 39.4061 -75.5442 80° East 236 272 7,400 -780 Descending FAA TRACON SMA TRACON (SMA)
02:31PM 39.4100 -75.5189 79° East 235 270 7,200 -600 Descending FAA TRACON SMA TRACON (SMA)
02:32PM 39.4139 -75.4900 80° East 232 267 7,000 -300 Descending FAA TRACON SMA TRACON (SMA)
02:32PM 39.4192 -75.4644 75° East 229 264 7,000  Level FAA TRACON SMA TRACON (SMA)
02:32PM 39.4225 -75.4386 81° East 228 262 7,000  Level FAA TRACON SMA TRACON (SMA)
02:33PM 39.4269 -75.4075 80° East 229 264 7,000  Level FAA TRACON SMA TRACON (SMA)
02:33PM 39.4311 -75.3833 77° East 221 254 7,000  Level FAA TRACON SMA TRACON (SMA)
02:33PM 39.4350 -75.3581 79° East 229 264 7,000  Level FAA TRACON SMA TRACON (SMA)
02:34PM 39.4397 -75.3278 79° East 227 261 7,000 -180 Level FAA TRACON SMA TRACON (SMA)
02:34PM 39.4439 -75.3028 78° East 227 261 6,900 -480 Descending FAA TRACON SMA TRACON (SMA)
02:34PM 39.4481 -75.2786 77° East 226 260 6,700 -780 Descending FAA TRACON SMA TRACON (SMA)
02:35PM 39.4522 -75.2553 77° East 221 254 6,400 -900 Descending FAA TRACON SMA TRACON (SMA)
02:35PM 39.4728 -75.2406 29° Northeast 230 265 6,100 -600 Descending FAA TRACON SMA TRACON (SMA)
02:35PM 39.4908 -75.2444 351° North 218 251 6,000 -180 Descending FAA TRACON SMA TRACON (SMA)
02:36PM 39.5097 -75.2567 333° Northwest 219 252 6,000  Level FAA TRACON SMA TRACON (SMA)
02:36PM 39.5300 -75.2661 340° North 221 254 6,000  Level FAA TRACON SMA TRACON (SMA)
02:36PM 39.5475 -75.2764 336° Northwest 223 257 6,000  Level FAA TRACON SMA TRACON (SMA)
02:37PM 39.5678 -75.2853 341° North 221 254 6,000  Level FAA TRACON SMA TRACON (SMA)
02:37PM 39.5869 -75.2978 333° Northwest 222 255 6,000  Level FAA TRACON SMA TRACON (SMA)
02:37PM 39.6050 -75.3075 337° Northwest 221 254 6,000  Level FAA TRACON SMA TRACON (SMA)
02:38PM 39.6222 -75.3167 338° Northwest 221 254 6,000  Level FAA TRACON SMA TRACON (SMA)
02:38PM 39.6439 -75.3289 337° Northwest 222 255 6,000  Level FAA TRACON SMA TRACON (SMA)
02:38PM 39.6617 -75.3386 337° Northwest 222 255 6,000  Level FAA TRACON SMA TRACON (SMA)
02:39PM 39.6792 -75.3481 337° Northwest 222 255 6,000  Level FAA TRACON SMA TRACON (SMA)
02:39PM 39.7017 -75.3603 337° Northwest 222 255 6,000  Level FAA TRACON SMA TRACON (SMA)
02:39PM 39.7192 -75.3708 335° Northwest 225 259 6,000  Level FAA TRACON SMA TRACON (SMA)
02:40PM 39.7289 -75.3906 303° West 210 242 6,000  Level FAA TRACON SMA TRACON (SMA)
02:40PM 39.7297 -75.4175 272° West 191 220 6,000  Level FAA TRACON SMA TRACON (SMA)
02:40PM 39.7250 -75.4408 255° West 213 245 6,000  Level FAA TRACON SMA TRACON (SMA)
02:41PM 39.7200 -75.4628 254° West 206 237 6,000 -300 Level FAA TRACON SMA TRACON (SMA)
02:41PM 39.7153 -75.4892 257° West 201 231 5,800 -780 Descending FAA TRACON SMA TRACON (SMA)
02:41PM 39.7097 -75.5094 250° West 193 222 5,500 -900 Descending FAA TRACON SMA TRACON (SMA)
02:42PM 39.7058 -75.5289 255° West 185 213 5,200 -780 Descending FAA TRACON SMA TRACON (SMA)
02:42PM 39.7000 -75.5525 252° West 180 207 5,000 -300 Descending FAA TRACON SMA TRACON (SMA)
02:42PM 39.6953 -75.5717 252° West 180 207 5,000  Level FAA TRACON SMA TRACON (SMA)
02:43PM 39.6906 -75.5911 252° West 182 209 5,000  Level FAA TRACON SMA TRACON (SMA)
02:43PM 39.6928 -75.6156 277° West 182 209 5,000  Level FAA TRACON SMA TRACON (SMA)
02:43PM 39.7067 -75.6236 336° Northwest 180 207 5,000  Level FAA TRACON SMA TRACON (SMA)
02:44PM 39.7225 -75.6250 356° North 184 212 5,000 -480 Level FAA TRACON SMA TRACON (SMA)
02:44PM 39.7414 -75.6258 358° North 179 206 4,700 -780 Descending FAA TRACON SMA TRACON (SMA)
02:44PM 39.7567 -75.6269 357° North 179 206 4,500 -780 Descending FAA TRACON SMA TRACON (SMA)
02:45PM 39.7714 -75.6236 10° North 181 208 4,200 -900 Descending FAA TRACON SMA TRACON (SMA)